createdAt,value
2018-06-01T00:00:38.327Z,76.31
2018-06-01T00:01:38.589Z,76.21
2018-06-01T00:02:38.613Z,77.17
2018-06-01T00:03:38.652Z,76.63
2018-06-01T00:04:38.660Z,76.11
2018-06-01T00:05:38.684Z,76.31
2018-06-01T00:06:38.709Z,76.31
2018-06-01T00:07:38.732Z,76.31
2018-06-01T00:08:38.757Z,76.4
2018-06-01T00:09:38.544Z,76.69
2018-06-01T00:10:38.807Z,77.26
2018-06-01T00:11:38.629Z,77.26
2018-06-01T00:12:38.855Z,76.5
2018-06-01T00:13:38.882Z,76.4
2018-06-01T00:14:38.903Z,76.69
2018-06-01T00:15:38.928Z,76.4
2018-06-01T00:16:38.971Z,76.21
2018-06-01T00:17:38.985Z,76.31
2018-06-01T00:18:39.010Z,76.01
2018-06-01T00:19:39.036Z,76.46
2018-06-01T00:20:38.808Z,77.36
2018-06-01T00:21:39.083Z,76.59
2018-06-01T00:22:38.852Z,77.36
2018-06-01T00:23:38.880Z,76.21
2018-06-01T00:24:39.160Z,76.5
2018-06-01T00:25:39.179Z,77.17
2018-06-01T00:26:39.255Z,77.17
2018-06-01T00:27:38.977Z,77.13
2018-06-01T00:28:39.251Z,77.13
2018-06-01T00:29:39.275Z,77.04
2018-06-01T00:30:39.303Z,76.61
2018-06-01T00:31:39.330Z,76.71
2018-06-01T00:32:39.354Z,77.67
2018-06-01T00:33:39.378Z,77.76
2018-06-01T00:34:39.404Z,77
2018-06-01T00:35:39.429Z,76.61
2018-06-01T00:36:39.462Z,77.09
2018-06-01T00:37:39.478Z,77.09
2018-06-01T00:38:39.502Z,77.29
2018-06-01T00:39:39.526Z,76.71
2018-06-01T00:40:39.297Z,77.23
2018-06-01T00:41:39.372Z,77.09
2018-06-01T00:42:39.605Z,77
2018-06-01T00:43:39.371Z,77.09
2018-06-01T00:44:39.391Z,77.09
2018-06-01T00:45:39.673Z,77.19
2018-06-01T00:46:39.700Z,77.09
2018-06-01T00:47:39.465Z,77.67
2018-06-01T00:48:39.747Z,77.19
2018-06-01T00:49:39.770Z,77.06
2018-06-01T00:50:39.800Z,77.34
2018-06-01T00:51:39.823Z,77.25
2018-06-01T00:52:39.840Z,77.34
2018-06-01T00:53:39.865Z,77.63
2018-06-01T00:54:39.636Z,77
2018-06-01T00:55:39.916Z,77.58
2018-06-01T00:56:39.988Z,76.81
2018-06-01T00:57:39.963Z,77.09
2018-06-01T00:58:40.003Z,77.48
2018-06-01T00:59:40.022Z,77.44
2018-06-01T01:00:40.036Z,77.06
2018-06-01T01:01:40.061Z,77.25
2018-06-01T01:02:40.076Z,77.19
2018-06-01T01:03:40.130Z,77.19
2018-06-01T01:04:39.874Z,77
2018-06-01T01:05:39.897Z,77.06
2018-06-01T01:06:40.224Z,77.34
2018-06-01T01:07:39.945Z,77.06
2018-06-01T01:08:40.222Z,77.15
2018-06-01T01:09:40.255Z,77.06
2018-06-01T01:10:40.278Z,77.53
2018-06-01T01:11:40.354Z,77.25
2018-06-01T01:12:40.317Z,77.25
2018-06-01T01:13:40.346Z,76.96
2018-06-01T01:14:40.369Z,77.44
2018-06-01T01:15:40.391Z,77.53
2018-06-01T01:16:40.464Z,77.25
2018-06-01T01:17:40.436Z,77.34
2018-06-01T01:18:40.460Z,77.25
2018-06-01T01:19:40.485Z,77.83
2018-06-01T01:20:40.256Z,77.44
2018-06-01T01:21:40.537Z,78.4
2018-06-01T01:22:40.560Z,77.83
2018-06-01T01:23:40.591Z,77.73
2018-06-01T01:24:40.612Z,77.44
2018-06-01T01:25:40.382Z,76.96
2018-06-01T01:26:40.711Z,77.15
2018-06-01T01:27:40.695Z,77.25
2018-06-01T01:28:40.709Z,78.21
2018-06-01T01:29:40.733Z,77.73
2018-06-01T01:30:40.502Z,77.25
2018-06-01T01:31:40.781Z,77.53
2018-06-01T01:32:40.809Z,77.34
2018-06-01T01:33:40.827Z,78.3
2018-06-01T01:34:40.862Z,77.34
2018-06-01T01:35:40.876Z,77.44
2018-06-01T01:36:40.901Z,77.44
2018-06-01T01:37:40.938Z,77.25
2018-06-01T01:38:40.951Z,77.44
2018-06-01T01:39:40.971Z,77.73
2018-06-01T01:40:40.995Z,77.73
2018-06-01T01:41:40.819Z,77.63
2018-06-01T01:42:41.057Z,76.96
2018-06-01T01:43:41.068Z,77.53
2018-06-01T01:44:41.092Z,77.63
2018-06-01T01:45:41.319Z,78.17
2018-06-01T01:46:41.150Z,78.08
2018-06-01T01:47:41.161Z,77.5
2018-06-01T01:48:41.184Z,78.17
2018-06-01T01:49:40.957Z,77.5
2018-06-01T01:50:40.985Z,77.63
2018-06-01T01:51:41.260Z,77.4
2018-06-01T01:52:41.029Z,78.17
2018-06-01T01:53:41.305Z,77.44
2018-06-01T01:54:41.073Z,77.69
2018-06-01T01:55:41.097Z,78.27
2018-06-01T01:56:41.426Z,77.5
2018-06-01T01:57:41.150Z,77.31
2018-06-01T01:58:41.426Z,77.63
2018-06-01T01:59:41.453Z,77.44
2018-06-01T02:00:41.481Z,77.21
2018-06-01T02:01:41.495Z,77.53
2018-06-01T02:02:41.522Z,77.34
2018-06-01T02:03:41.540Z,78.08
2018-06-01T02:04:41.562Z,77.69
2018-06-01T02:05:41.443Z,77.78
2018-06-01T02:06:41.618Z,78.08
2018-06-01T02:07:41.641Z,77.69
2018-06-01T02:08:41.669Z,77.31
2018-06-01T02:09:41.686Z,78.27
2018-06-01T02:10:41.716Z,78.17
2018-06-01T02:11:41.543Z,78.08
2018-06-01T02:12:41.755Z,77.69
2018-06-01T02:13:41.789Z,77.21
2018-06-01T02:14:41.812Z,77.5
2018-06-01T02:15:41.576Z,77.98
2018-06-01T02:16:41.597Z,77.88
2018-06-01T02:17:41.880Z,78.08
2018-06-01T02:18:41.646Z,78.27
2018-06-01T02:19:41.923Z,78.17
2018-06-01T02:20:41.692Z,77.98
2018-06-01T02:21:41.744Z,78.17
2018-06-01T02:22:41.996Z,77.4
2018-06-01T02:23:42.072Z,77.84
2018-06-01T02:24:41.786Z,78.03
2018-06-01T02:25:41.809Z,77.84
2018-06-01T02:26:42.132Z,77.75
2018-06-01T02:27:42.108Z,77.78
2018-06-01T02:28:42.133Z,77.69
2018-06-01T02:29:42.155Z,78.03
2018-06-01T02:30:42.176Z,77.84
2018-06-01T02:31:42.209Z,78.27
2018-06-01T02:32:42.233Z,77.75
2018-06-01T02:33:42.249Z,77.84
2018-06-01T02:34:42.277Z,77.75
2018-06-01T02:35:42.045Z,78.52
2018-06-01T02:36:42.322Z,77.75
2018-06-01T02:37:42.341Z,78.32
2018-06-01T02:38:42.367Z,77.84
2018-06-01T02:39:42.409Z,77.84
2018-06-01T02:40:42.162Z,78.32
2018-06-01T02:41:42.490Z,77.84
2018-06-01T02:42:42.214Z,77.84
2018-06-01T02:43:42.488Z,77.75
2018-06-01T02:44:42.259Z,78.32
2018-06-01T02:45:42.303Z,78.52
2018-06-01T02:46:42.563Z,78.42
2018-06-01T02:47:42.589Z,78.61
2018-06-01T02:48:42.611Z,78
2018-06-01T02:49:42.629Z,78.19
2018-06-01T02:50:42.653Z,77.75
2018-06-01T02:51:42.778Z,78.52
2018-06-01T02:52:42.455Z,78.61
2018-06-01T02:53:42.728Z,78.32
2018-06-01T02:54:42.748Z,77.94
2018-06-01T02:55:42.775Z,78.42
2018-06-01T02:56:42.853Z,78.8
2018-06-01T02:57:42.820Z,77.84
2018-06-01T02:58:42.845Z,78.42
2018-06-01T02:59:42.873Z,78.38
2018-06-01T03:00:42.892Z,78.38
2018-06-01T03:01:42.909Z,78.28
2018-06-01T03:02:42.927Z,78.28
2018-06-01T03:03:42.953Z,78.42
2018-06-01T03:04:42.975Z,78.32
2018-06-01T03:05:42.999Z,77.84
2018-06-01T03:06:42.767Z,78.42
2018-06-01T03:07:43.044Z,78.03
2018-06-01T03:08:43.066Z,78.03
2018-06-01T03:09:43.089Z,77.94
2018-06-01T03:10:43.111Z,78.52
2018-06-01T03:11:43.192Z,77.94
2018-06-01T03:12:43.167Z,78.52
2018-06-01T03:13:43.189Z,78.38
2018-06-01T03:14:43.219Z,78.28
2018-06-01T03:15:43.249Z,78.38
2018-06-01T03:16:43.265Z,77.9
2018-06-01T03:17:43.281Z,77.8
2018-06-01T03:18:43.306Z,78
2018-06-01T03:19:43.078Z,77.8
2018-06-01T03:20:43.104Z,78.03
2018-06-01T03:21:43.379Z,77.9
2018-06-01T03:22:43.395Z,78
2018-06-01T03:23:43.422Z,77.8
2018-06-01T03:24:43.446Z,78.57
2018-06-01T03:25:43.469Z,78.47
2018-06-01T03:26:43.542Z,78.77
2018-06-01T03:27:43.521Z,78.32
2018-06-01T03:28:43.536Z,78
2018-06-01T03:29:43.563Z,77.71
2018-06-01T03:30:43.587Z,78.57
2018-06-01T03:31:43.809Z,77.61
2018-06-01T03:32:43.630Z,78.57
2018-06-01T03:33:43.403Z,77.71
2018-06-01T03:34:43.676Z,78.77
2018-06-01T03:35:43.445Z,78.28
2018-06-01T03:36:43.730Z,78.28
2018-06-01T03:37:43.743Z,78
2018-06-01T03:38:43.770Z,78
2018-06-01T03:39:43.789Z,77.9
2018-06-01T03:40:43.815Z,78.09
2018-06-01T03:41:43.892Z,78
2018-06-01T03:42:43.870Z,78.09
2018-06-01T03:43:43.889Z,78
2018-06-01T03:44:43.916Z,78.19
2018-06-01T03:45:43.682Z,78.09
2018-06-01T03:46:43.966Z,77.65
2018-06-01T03:47:43.989Z,77.46
2018-06-01T03:48:44.009Z,78.23
2018-06-01T03:49:44.031Z,77.46
2018-06-01T03:50:44.046Z,77.75
2018-06-01T03:51:44.071Z,77.94
2018-06-01T03:52:44.091Z,77.65
2018-06-01T03:53:44.125Z,77.26
2018-06-01T03:54:43.892Z,77.26
2018-06-01T03:55:44.167Z,77.71
2018-06-01T03:56:44.240Z,77.8
2018-06-01T03:57:43.960Z,78.28
2018-06-01T03:58:44.237Z,77.51
2018-06-01T03:59:44.257Z,77.9
2018-06-01T04:00:44.284Z,78.77
2018-06-01T04:01:44.306Z,78
2018-06-01T04:02:44.075Z,77.71
2018-06-01T04:03:44.353Z,78.09
2018-06-01T04:04:44.380Z,77.71
2018-06-01T04:05:44.146Z,78.32
2018-06-01T04:06:44.427Z,77.56
2018-06-01T04:07:44.452Z,77.84
2018-06-01T04:08:44.466Z,77.94
2018-06-01T04:09:44.238Z,77.61
2018-06-01T04:10:44.513Z,78.13
2018-06-01T04:11:44.591Z,77.56
2018-06-01T04:12:44.561Z,78.32
2018-06-01T04:13:44.330Z,77.36
2018-06-01T04:14:44.615Z,77.65
2018-06-01T04:15:44.633Z,77.36
2018-06-01T04:16:45.653Z,78.13
2018-06-01T04:17:44.678Z,77.75
2018-06-01T04:18:44.702Z,77.61
2018-06-01T04:19:44.724Z,77.61
2018-06-01T04:20:44.755Z,78
2018-06-01T04:21:44.775Z,78.19
2018-06-01T04:22:44.787Z,77.71
2018-06-01T04:23:44.561Z,77.84
2018-06-01T04:24:44.844Z,77.75
2018-06-01T04:25:44.867Z,77.65
2018-06-01T04:26:44.937Z,77.84
2018-06-01T04:27:44.971Z,77.75
2018-06-01T04:28:44.960Z,77.84
2018-06-01T04:29:44.958Z,77.26
2018-06-01T04:30:44.729Z,77.46
2018-06-01T04:31:45.012Z,77.36
2018-06-01T04:32:45.032Z,77.84
2018-06-01T04:33:45.054Z,77.75
2018-06-01T04:34:45.075Z,77.61
2018-06-01T04:35:45.099Z,78.09
2018-06-01T04:36:45.120Z,77.8
2018-06-01T04:37:45.150Z,77.61
2018-06-01T04:38:45.171Z,78.19
2018-06-01T04:39:45.191Z,77.65
2018-06-01T04:40:45.213Z,77.65
2018-06-01T04:41:45.280Z,78.03
2018-06-01T04:42:45.255Z,77.17
2018-06-01T04:43:45.279Z,77.9
2018-06-01T04:44:45.304Z,77.84
2018-06-01T04:45:45.326Z,77.46
2018-06-01T04:46:45.348Z,77.65
2018-06-01T04:47:45.374Z,77.94
2018-06-01T04:48:45.396Z,77.94
2018-06-01T04:49:45.420Z,77.94
2018-06-01T04:50:45.443Z,77.46
2018-06-01T04:51:45.470Z,77.65
2018-06-01T04:52:45.493Z,77.71
2018-06-01T04:53:45.518Z,77.56
2018-06-01T04:54:45.541Z,77.75
2018-06-01T04:55:45.569Z,78.03
2018-06-01T04:56:45.647Z,77.65
2018-06-01T04:57:45.614Z,77.56
2018-06-01T04:58:45.383Z,77.17
2018-06-01T04:59:45.678Z,77.01
2018-06-01T05:00:45.683Z,77.69
2018-06-01T05:01:45.700Z,77.5
2018-06-01T05:02:45.723Z,76.59
2018-06-01T05:03:45.752Z,76.73
2018-06-01T05:04:45.797Z,77.26
2018-06-01T05:05:45.799Z,77.26
2018-06-01T05:06:45.827Z,77.36
2018-06-01T05:07:45.848Z,77.26
2018-06-01T05:08:45.617Z,77.21
2018-06-01T05:09:45.897Z,77.56
2018-06-01T05:10:45.920Z,76.98
2018-06-01T05:11:45.989Z,77.46
2018-06-01T05:12:45.964Z,77.84
2018-06-01T05:13:45.730Z,76.69
2018-06-01T05:14:46.014Z,77.5
2018-06-01T05:15:45.785Z,77.5
2018-06-01T05:16:46.164Z,77.21
2018-06-01T05:17:46.086Z,77.5
2018-06-01T05:18:46.113Z,77.06
2018-06-01T05:19:46.132Z,76.82
2018-06-01T05:20:46.162Z,76.92
2018-06-01T05:21:46.180Z,76.73
2018-06-01T05:22:46.204Z,76.82
2018-06-01T05:23:46.231Z,76.73
2018-06-01T05:24:46.252Z,77.01
2018-06-01T05:25:46.275Z,77.15
2018-06-01T05:26:46.349Z,76.92
2018-06-01T05:27:46.326Z,76.64
2018-06-01T05:28:46.092Z,76.73
2018-06-01T05:29:46.370Z,77.31
2018-06-01T05:30:46.397Z,77.01
2018-06-01T05:31:46.465Z,76.82
2018-06-01T05:32:46.442Z,77.78
2018-06-01T05:33:46.467Z,76.92
2018-06-01T05:34:46.488Z,77.01
2018-06-01T05:35:46.515Z,77.5
2018-06-01T05:36:46.536Z,77.21
2018-06-01T05:37:46.559Z,76.82
2018-06-01T05:38:46.582Z,77.4
2018-06-01T05:39:46.608Z,77.69
2018-06-01T05:40:46.628Z,77.69
2018-06-01T05:41:46.695Z,77.4
2018-06-01T05:42:46.420Z,77.11
2018-06-01T05:43:46.696Z,77.21
2018-06-01T05:44:46.724Z,76.64
2018-06-01T05:45:46.742Z,76.82
2018-06-01T05:46:46.513Z,77.31
2018-06-01T05:47:46.787Z,76.73
2018-06-01T05:48:46.817Z,77.01
2018-06-01T05:49:46.843Z,77.31
2018-06-01T05:50:46.865Z,77.4
2018-06-01T05:51:46.879Z,77.4
2018-06-01T05:52:46.904Z,77.5
2018-06-01T05:53:46.924Z,77.01
2018-06-01T05:54:46.950Z,76.73
2018-06-01T05:55:46.725Z,77.25
2018-06-01T05:56:46.994Z,76.77
2018-06-01T05:57:46.776Z,76.73
2018-06-01T05:58:47.043Z,77.98
2018-06-01T05:59:46.820Z,77.21
2018-06-01T06:00:47.090Z,78.45
2018-06-01T06:01:46.874Z,78.75
2018-06-01T06:02:47.151Z,77.46
2018-06-01T06:03:46.921Z,77.84
2018-06-01T06:04:47.205Z,77.84
2018-06-01T06:05:47.221Z,77.56
2018-06-01T06:06:47.245Z,77.75
2018-06-01T06:07:47.027Z,78.32
2018-06-01T06:08:47.040Z,78.42
2018-06-01T06:09:47.061Z,77.94
2018-06-01T06:10:47.086Z,78.61
2018-06-01T06:11:47.356Z,78.03
2018-06-01T06:12:47.377Z,77.9
2018-06-01T06:13:47.400Z,77.61
2018-06-01T06:14:47.452Z,78.47
2018-06-01T06:15:47.510Z,77.8
2018-06-01T06:16:47.226Z,78.19
2018-06-01T06:17:47.638Z,78.19
2018-06-01T06:18:47.526Z,78.19
2018-06-01T06:19:47.649Z,78.38
2018-06-01T06:20:47.569Z,78.47
2018-06-01T06:21:47.603Z,78.19
2018-06-01T06:22:47.621Z,78.28
2018-06-01T06:23:47.387Z,78.19
2018-06-01T06:24:47.664Z,77.38
2018-06-01T06:25:47.833Z,77.42
2018-06-01T06:26:47.716Z,77.71
2018-06-01T06:27:47.735Z,77.04
2018-06-01T06:28:47.758Z,78.05
2018-06-01T06:29:47.524Z,78.34
2018-06-01T06:30:47.810Z,77.95
2018-06-01T06:31:47.824Z,77.53
2018-06-01T06:32:47.849Z,77.73
2018-06-01T06:33:47.870Z,78.02
2018-06-01T06:34:47.638Z,77.82
2018-06-01T06:35:47.917Z,77.06
2018-06-01T06:36:47.689Z,77.67
2018-06-01T06:37:48.117Z,77
2018-06-01T06:38:47.743Z,77.19
2018-06-01T06:39:48.009Z,77.13
2018-06-01T06:40:47.776Z,76.65
2018-06-01T06:41:48.051Z,78.09
2018-06-01T06:42:48.076Z,77.04
2018-06-01T06:43:48.102Z,76.65
2018-06-01T06:44:47.869Z,77.13
2018-06-01T06:45:48.169Z,77.75
2018-06-01T06:46:48.169Z,76.94
2018-06-01T06:47:48.195Z,77.13
2018-06-01T06:48:48.228Z,77.17
2018-06-01T06:49:47.982Z,76.98
2018-06-01T06:50:48.266Z,77.08
2018-06-01T06:51:48.285Z,77.84
2018-06-01T06:52:48.309Z,76.88
2018-06-01T06:53:48.328Z,77.36
2018-06-01T06:54:48.095Z,76.31
2018-06-01T06:55:48.384Z,77.46
2018-06-01T06:56:48.395Z,77.21
2018-06-01T06:57:48.418Z,78.32
2018-06-01T06:58:48.191Z,77.5
2018-06-01T06:59:48.211Z,77.5
2018-06-01T07:00:48.487Z,77.26
2018-06-01T07:01:48.265Z,77.21
2018-06-01T07:02:48.608Z,75.96
2018-06-01T07:03:48.560Z,77.5
2018-06-01T07:04:48.584Z,77.78
2018-06-01T07:05:48.608Z,78.11
2018-06-01T07:06:48.629Z,78.78
2018-06-01T07:07:48.650Z,75.32
2018-06-01T07:08:48.675Z,75.52
2018-06-01T07:09:48.701Z,77.44
2018-06-01T07:10:48.723Z,77.06
2018-06-01T07:11:48.765Z,76.42
2018-06-01T07:12:48.769Z,77.09
2018-06-01T07:13:48.546Z,77.38
2018-06-01T07:14:48.569Z,77.09
2018-06-01T07:15:48.847Z,76.71
2018-06-01T07:16:48.889Z,77.29
2018-06-01T07:17:48.642Z,76.9
2018-06-01T07:18:48.667Z,77.38
2018-06-01T07:19:48.945Z,76.42
2018-06-01T07:20:48.975Z,77.58
2018-06-01T07:21:49.008Z,75.56
2018-06-01T07:22:49.022Z,76.9
2018-06-01T07:23:49.042Z,75.98
2018-06-01T07:24:49.072Z,76.26
2018-06-01T07:25:48.837Z,76.69
2018-06-01T07:26:48.860Z,76.88
2018-06-01T07:27:48.929Z,75.92
2018-06-01T07:28:49.167Z,77.26
2018-06-01T07:29:49.188Z,75.44
2018-06-01T07:30:49.220Z,77.65
2018-06-01T07:31:48.989Z,75.92
2018-06-01T07:32:49.265Z,76.88
2018-06-01T07:33:49.288Z,76.56
2018-06-01T07:34:49.325Z,77.13
2018-06-01T07:35:49.344Z,75.88
2018-06-01T07:36:49.108Z,75.94
2018-06-01T07:37:49.395Z,76.56
2018-06-01T07:38:49.184Z,79.15
2018-06-01T07:39:49.439Z,76.26
2018-06-01T07:40:49.468Z,77.81
2018-06-01T07:41:49.486Z,75.59
2018-06-01T07:42:49.515Z,75.98
2018-06-01T07:43:49.538Z,76.94
2018-06-01T07:44:49.564Z,75.73
2018-06-01T07:45:49.332Z,78.13
2018-06-01T07:46:49.389Z,75.63
2018-06-01T07:47:49.632Z,76.4
2018-06-01T07:48:49.658Z,75.49
2018-06-01T07:49:49.684Z,77.23
2018-06-01T07:50:49.715Z,76.46
2018-06-01T07:51:49.730Z,76.84
2018-06-01T07:52:49.760Z,76.36
2018-06-01T07:53:49.785Z,76.69
2018-06-01T07:54:49.813Z,76.78
2018-06-01T07:55:49.834Z,76.11
2018-06-01T07:56:49.861Z,76.69
2018-06-01T07:57:49.630Z,75.73
2018-06-01T07:58:49.919Z,75.96
2018-06-01T07:59:49.937Z,76.15
2018-06-01T08:00:50.002Z,75.76
2018-06-01T08:01:49.987Z,76.53
2018-06-01T08:02:49.804Z,75.48
2018-06-01T08:03:50.039Z,75.48
2018-06-01T08:04:50.066Z,75.67
2018-06-01T08:05:50.091Z,75.38
2018-06-01T08:06:49.859Z,75.57
2018-06-01T08:07:50.186Z,77.01
2018-06-01T08:08:50.164Z,76.25
2018-06-01T08:09:50.192Z,75.67
2018-06-01T08:10:50.217Z,75.38
2018-06-01T08:11:50.261Z,75.67
2018-06-01T08:12:50.262Z,75.57
2018-06-01T08:13:50.289Z,75.61
2018-06-01T08:14:50.087Z,75.13
2018-06-01T08:15:50.338Z,75.32
2018-06-01T08:16:50.370Z,74.36
2018-06-01T08:17:50.392Z,75.61
2018-06-01T08:18:50.417Z,75.07
2018-06-01T08:19:50.445Z,75.16
2018-06-01T08:20:50.468Z,75.2
2018-06-01T08:21:50.495Z,74.62
2018-06-01T08:22:50.571Z,74.14
2018-06-01T08:23:50.544Z,74.82
2018-06-01T08:24:50.567Z,75.2
2018-06-01T08:25:50.595Z,74.27
2018-06-01T08:26:50.621Z,74.47
2018-06-01T08:27:50.650Z,73.89
2018-06-01T08:28:50.680Z,73.69
2018-06-01T08:29:50.708Z,73.5
2018-06-01T08:30:50.731Z,73.35
2018-06-01T08:31:50.502Z,73.93
2018-06-01T08:32:50.825Z,73.93
2018-06-01T08:33:50.810Z,74.06
2018-06-01T08:34:50.830Z,73.58
2018-06-01T08:35:50.858Z,74.06
2018-06-01T08:36:50.630Z,73.96
2018-06-01T08:37:50.960Z,73.28
2018-06-01T08:38:50.944Z,73.19
2018-06-01T08:39:50.965Z,73.61
2018-06-01T08:40:51.005Z,72.45
2018-06-01T08:41:51.028Z,73.61
2018-06-01T08:42:50.794Z,72.64
2018-06-01T08:43:51.078Z,73.61
2018-06-01T08:44:51.104Z,73.16
2018-06-01T08:45:51.132Z,74.17
2018-06-01T08:46:50.902Z,73.33
2018-06-01T08:47:50.979Z,71.98
2018-06-01T08:48:51.211Z,73.33
2018-06-01T08:49:51.240Z,72.46
2018-06-01T08:50:51.266Z,71.59
2018-06-01T08:51:51.038Z,71.5
2018-06-01T08:52:51.371Z,72.27
2018-06-01T08:53:51.347Z,72.98
2018-06-01T08:54:51.124Z,71.14
2018-06-01T08:55:51.410Z,72.21
2018-06-01T08:56:51.436Z,72.92
2018-06-01T08:57:51.507Z,71.37
2018-06-01T08:58:51.549Z,70.5
2018-06-01T08:59:51.258Z,70.98
2018-06-01T09:00:51.537Z,71.22
2018-06-01T09:01:51.567Z,71.22
2018-06-01T09:02:51.615Z,71.44
2018-06-01T09:03:51.629Z,72.02
2018-06-01T09:04:51.651Z,69.64
2018-06-01T09:05:51.684Z,67.18
2018-06-01T09:06:51.708Z,68.92
2018-06-01T09:07:51.532Z,69.37
2018-06-01T09:08:51.770Z,73.11
2018-06-01T09:09:51.792Z,70.89
2018-06-01T09:10:51.825Z,71.47
2018-06-01T09:11:51.848Z,72.63
2018-06-01T09:12:51.878Z,72.83
2018-06-01T09:13:51.648Z,70.4
2018-06-01T09:14:51.675Z,72.28
2018-06-01T09:15:51.706Z,72.18
2018-06-01T09:16:52.097Z,70.25
2018-06-01T09:17:52.013Z,72.96
2018-06-01T09:18:52.043Z,70.37
2018-06-01T09:19:52.074Z,69.6
2018-06-01T09:20:52.094Z,68.21
2018-06-01T09:21:51.871Z,69.31
2018-06-01T09:22:52.202Z,70.18
2018-06-01T09:23:52.178Z,72.12
2018-06-01T09:24:51.956Z,71.15
2018-06-01T09:25:52.236Z,68.73
2018-06-01T09:26:52.272Z,70.41
2018-06-01T09:27:52.289Z,69.24
2018-06-01T09:28:52.313Z,67.54
2018-06-01T09:29:52.091Z,64.33
2018-06-01T09:30:52.372Z,63.72
2018-06-01T09:31:52.146Z,65.72
2018-06-01T09:32:52.425Z,64.85
2018-06-01T09:33:52.208Z,64.62
2018-06-01T09:34:52.485Z,63.24
2018-06-01T09:35:52.521Z,64.62
2018-06-01T09:36:52.290Z,63.72
2018-06-01T09:37:52.373Z,65.37
2018-06-01T09:38:52.606Z,63.72
2018-06-01T09:39:52.648Z,65.08
2018-06-01T09:40:52.660Z,65.37
2018-06-01T09:41:52.688Z,65.08
2018-06-01T09:42:52.744Z,66.11
2018-06-01T09:43:52.732Z,66.78
2018-06-01T09:44:52.775Z,66.37
2018-06-01T09:45:52.785Z,66.66
2018-06-01T09:46:52.834Z,66.47
2018-06-01T09:47:52.701Z,66.98
2018-06-01T09:48:52.886Z,65.08
2018-06-01T09:49:52.915Z,64.2
2018-06-01T09:50:52.962Z,63.95
2018-06-01T09:51:52.715Z,64.3
2018-06-01T09:52:52.789Z,65.37
2018-06-01T09:53:52.767Z,63.56
2018-06-01T09:54:53.066Z,64.85
2018-06-01T09:55:53.076Z,62.23
2018-06-01T09:56:53.105Z,64.4
2018-06-01T09:57:52.934Z,61.49
2018-06-01T09:58:52.908Z,61.32
2018-06-01T09:59:53.189Z,63.85
2018-06-01T10:00:52.969Z,59.97
2018-06-01T10:01:52.997Z,60.19
2018-06-01T10:02:53.284Z,59.8
2018-06-01T10:03:53.312Z,58.44
2018-06-01T10:04:53.346Z,56.89
2018-06-01T10:05:53.371Z,57.25
2018-06-01T10:06:53.415Z,62.26
2018-06-01T10:07:53.436Z,60.23
2018-06-01T10:08:53.454Z,59.64
2018-06-01T10:09:53.485Z,59.91
2018-06-01T10:10:53.513Z,59.52
2018-06-01T10:11:53.555Z,59.23
2018-06-01T10:12:53.622Z,59.61
2018-06-01T10:13:53.597Z,61.26
2018-06-01T10:14:53.640Z,58.26
2018-06-01T10:15:53.657Z,59.84
2018-06-01T10:16:53.428Z,57.28
2018-06-01T10:17:53.711Z,53.06
2018-06-01T10:18:53.744Z,50.56
2018-06-01T10:19:53.775Z,48.44
2018-06-01T10:20:53.802Z,47
2018-06-01T10:21:53.832Z,42.55
2018-06-01T10:22:53.910Z,41.99
2018-06-01T10:23:53.886Z,42.18
2018-06-01T10:24:53.926Z,41.03
2018-06-01T10:25:53.951Z,41.61
2018-06-01T10:26:53.993Z,41.63
2018-06-01T10:27:53.758Z,40.86
2018-06-01T10:28:53.789Z,40.29
2018-06-01T10:29:54.075Z,40.09
2018-06-01T10:30:54.101Z,39.31
2018-06-01T10:31:53.880Z,39.29
2018-06-01T10:32:54.262Z,39.69
2018-06-01T10:33:54.196Z,38.81
2018-06-01T10:34:54.231Z,40.52
2018-06-01T10:35:54.261Z,40.78
2018-06-01T10:36:54.294Z,41.16
2018-06-01T10:37:54.124Z,42.24
2018-06-01T10:38:54.352Z,42.43
2018-06-01T10:39:54.389Z,42.21
2018-06-01T10:40:54.415Z,43.19
2018-06-01T10:41:54.448Z,43.82
2018-06-01T10:42:54.492Z,45.87
2018-06-01T10:43:54.509Z,44.41
2018-06-01T10:44:54.545Z,44.33
2018-06-01T10:45:54.580Z,44.72
2018-06-01T10:46:54.600Z,45.69
2018-06-01T10:47:54.666Z,45.01
2018-06-01T10:48:54.659Z,45.11
2018-06-01T10:49:54.693Z,43.36
2018-06-01T10:50:54.760Z,43.16
2018-06-01T10:51:54.749Z,42.11
2018-06-01T10:52:54.830Z,43.19
2018-06-01T10:53:54.556Z,42.41
2018-06-01T10:54:54.837Z,41.28
2018-06-01T10:55:54.873Z,39.84
2018-06-01T10:56:54.645Z,39.86
2018-06-01T10:57:54.931Z,38.9
2018-06-01T10:58:54.960Z,37.75
2018-06-01T10:59:54.991Z,36.11
2018-06-01T11:00:55.024Z,35.35
2018-06-01T11:01:55.055Z,33.89
2018-06-01T11:02:55.091Z,33.11
2018-06-01T11:03:55.120Z,32.34
2018-06-01T11:04:55.157Z,34
2018-06-01T11:05:55.180Z,34.26
2018-06-01T11:06:55.211Z,34.08
2018-06-01T11:07:55.292Z,33.43
2018-06-01T11:08:55.275Z,33.31
2018-06-01T11:09:55.309Z,34.09
2018-06-01T11:10:55.341Z,34.57
2018-06-01T11:11:55.374Z,35.8
2018-06-01T11:12:55.152Z,37.45
2018-06-01T11:13:55.434Z,37.43
2018-06-01T11:14:55.467Z,38.28
2018-06-01T11:15:55.245Z,37.99
2018-06-01T11:16:55.543Z,37.71
2018-06-01T11:17:55.575Z,37.54
2018-06-01T11:18:55.598Z,37.46
2018-06-01T11:19:55.626Z,36.1
2018-06-01T11:20:55.661Z,36.86
2018-06-01T11:21:55.689Z,37.25
2018-06-01T11:22:55.771Z,37.35
2018-06-01T11:23:55.753Z,38.28
2018-06-01T11:24:55.784Z,38.56
2018-06-01T11:25:55.561Z,38.44
2018-06-01T11:26:55.604Z,38.64
2018-06-01T11:27:55.876Z,39
2018-06-01T11:28:55.655Z,40.27
2018-06-01T11:29:55.940Z,39.59
2018-06-01T11:30:55.968Z,38.46
2018-06-01T11:31:55.989Z,39.14
2018-06-01T11:32:56.128Z,39.51
2018-06-01T11:33:56.055Z,37.58
2018-06-01T11:34:56.085Z,37.58
2018-06-01T11:35:55.861Z,37.12
2018-06-01T11:36:56.147Z,36.84
2018-06-01T11:37:55.979Z,36.78
2018-06-01T11:38:55.959Z,33.02
2018-06-01T11:39:56.246Z,31.8
2018-06-01T11:40:56.024Z,29.98
2018-06-01T11:41:56.306Z,28.25
2018-06-01T11:42:56.359Z,27.29
2018-06-01T11:43:56.371Z,27.5
2018-06-01T11:44:56.407Z,28.26
2018-06-01T11:45:56.456Z,29.87
2018-06-01T11:46:56.467Z,32.35
2018-06-01T11:47:56.552Z,33.59
2018-06-01T11:48:56.542Z,32.13
2018-06-01T11:49:56.572Z,32.53
2018-06-01T11:50:56.610Z,31.77
2018-06-01T11:51:56.636Z,29.56
2018-06-01T11:52:56.715Z,28.51
2018-06-01T11:53:56.701Z,28.54
2018-06-01T11:54:56.736Z,28.25
2018-06-01T11:55:56.512Z,30.65
2018-06-01T11:56:56.804Z,30.64
2018-06-01T11:57:56.937Z,31.51
2018-06-01T11:58:56.866Z,32.17
2018-06-01T11:59:56.898Z,31.49
2018-06-01T12:00:56.928Z,32.58
2018-06-01T12:01:56.964Z,30.43
2018-06-01T12:02:57.000Z,31.2
2018-06-01T12:03:57.043Z,31.11
2018-06-01T12:04:57.064Z,31.31
2018-06-01T12:05:57.092Z,32.39
2018-06-01T12:06:56.870Z,33.05
2018-06-01T12:07:57.213Z,32.86
2018-06-01T12:08:57.393Z,33.45
2018-06-01T12:09:57.225Z,33.62
2018-06-01T12:10:57.023Z,33.14
2018-06-01T12:11:57.031Z,32.84
2018-06-01T12:12:57.324Z,30.79
2018-06-01T12:13:57.356Z,30.91
2018-06-01T12:14:57.391Z,29.69
2018-06-01T12:15:57.439Z,27.67
2018-06-01T12:16:57.444Z,25.65
2018-06-01T12:17:57.226Z,26.05
2018-06-01T12:18:57.256Z,25.17
2018-06-01T12:19:57.287Z,25.29
2018-06-01T12:20:57.571Z,24.15
2018-06-01T12:21:57.603Z,24.43
2018-06-01T12:22:57.696Z,24.15
2018-06-01T12:23:57.670Z,23.59
2018-06-01T12:24:57.705Z,23.21
2018-06-01T12:25:57.736Z,23.69
2018-06-01T12:26:57.776Z,25.32
2018-06-01T12:27:57.806Z,26.75
2018-06-01T12:28:57.835Z,27.61
2018-06-01T12:29:57.622Z,27.77
2018-06-01T12:30:57.904Z,29.5
2018-06-01T12:31:57.946Z,30.16
2018-06-01T12:32:57.980Z,31.51
2018-06-01T12:33:58.020Z,31.68
2018-06-01T12:34:58.048Z,31.41
2018-06-01T12:35:58.073Z,32.78
2018-06-01T12:36:57.853Z,31.8
2018-06-01T12:37:58.192Z,30.74
2018-06-01T12:38:58.173Z,30.83
2018-06-01T12:39:58.199Z,31.7
2018-06-01T12:40:58.232Z,31.11
2018-06-01T12:41:58.010Z,31.29
2018-06-01T12:42:58.317Z,31.96
2018-06-01T12:43:58.332Z,34.57
2018-06-01T12:44:58.108Z,33.85
2018-06-01T12:45:58.141Z,32.97
2018-06-01T12:46:58.427Z,32.79
2018-06-01T12:47:58.462Z,31.65
2018-06-01T12:48:58.491Z,30.02
2018-06-01T12:49:58.523Z,29.66
2018-06-01T12:50:58.556Z,28.02
2018-06-01T12:51:58.586Z,27.28
2018-06-01T12:52:58.670Z,27.75
2018-06-01T12:53:58.678Z,26.7
2018-06-01T12:54:58.687Z,26.82
2018-06-01T12:55:58.717Z,25.28
2018-06-01T12:56:58.755Z,23.25